createdAt,value
2022-12-28T00:00:46.003Z,1016.04
2022-12-28T00:01:45.975Z,1016.00
2022-12-28T00:02:45.995Z,1016.01
2022-12-28T00:03:45.957Z,1016.00
2022-12-28T00:04:45.920Z,1016.02
2022-12-28T00:05:45.903Z,1015.94
2022-12-28T00:06:45.891Z,1016.09
2022-12-28T00:07:45.888Z,1016.00
2022-12-28T00:08:45.872Z,1015.98
2022-12-28T00:09:45.858Z,1016.03
2022-12-28T00:11:06.582Z,1016.03
2022-12-28T00:11:45.833Z,1015.97
2022-12-28T00:12:45.839Z,1016.04
2022-12-28T00:13:45.816Z,1016.09
2022-12-28T00:14:46.145Z,1015.96
2022-12-28T00:15:45.812Z,1015.96
2022-12-28T00:16:45.859Z,1015.95
2022-12-28T00:17:45.777Z,1015.92
2022-12-28T00:18:45.766Z,1015.91
2022-12-28T00:19:45.773Z,1015.92
2022-12-28T00:20:45.739Z,1015.89
2022-12-28T00:21:45.738Z,1015.87
2022-12-28T00:22:45.723Z,1015.89
2022-12-28T00:23:45.701Z,1015.92
2022-12-28T00:24:45.693Z,1015.86
2022-12-28T00:25:45.677Z,1015.82
2022-12-28T00:26:45.674Z,1015.74
2022-12-28T00:27:45.664Z,1015.76
2022-12-28T00:28:45.645Z,1015.79
2022-12-28T00:29:45.637Z,1015.75
2022-12-28T00:30:45.627Z,1015.83
2022-12-28T00:31:45.818Z,1015.82
2022-12-28T00:32:45.599Z,1015.77
2022-12-28T00:33:45.596Z,1015.65
2022-12-28T00:34:45.583Z,1015.62
2022-12-28T00:35:45.602Z,1015.64
2022-12-28T00:37:09.529Z,1015.68
2022-12-28T00:37:45.549Z,1015.77
2022-12-28T00:38:45.548Z,1015.65
2022-12-28T00:39:45.527Z,1015.61
2022-12-28T00:40:45.514Z,1015.65
2022-12-28T00:41:45.510Z,1015.68
2022-12-28T00:42:45.499Z,1015.80
2022-12-28T00:43:45.486Z,1015.81
2022-12-28T00:44:45.476Z,1015.84
2022-12-28T00:45:45.488Z,1015.83
2022-12-28T00:46:45.457Z,1015.78
2022-12-28T00:47:45.441Z,1015.81
2022-12-28T00:48:45.430Z,1015.77
2022-12-28T00:49:45.411Z,1015.62
2022-12-28T00:50:45.427Z,1015.67
2022-12-28T00:51:45.411Z,1015.51
2022-12-28T00:52:45.378Z,1015.57
2022-12-28T00:53:45.368Z,1015.57
2022-12-28T00:54:45.357Z,1015.52
2022-12-28T00:55:45.355Z,1015.53
2022-12-28T00:56:45.346Z,1015.55
2022-12-28T00:57:45.324Z,1015.57
2022-12-28T00:58:45.312Z,1015.57
2022-12-28T00:59:45.303Z,1015.52
2022-12-28T01:00:45.316Z,1015.51
2022-12-28T01:01:45.513Z,1015.47
2022-12-28T01:02:45.285Z,1015.53
2022-12-28T01:03:45.268Z,1015.50
2022-12-28T01:04:45.264Z,1015.53
2022-12-28T01:05:45.247Z,1015.56
2022-12-28T01:06:45.226Z,1015.50
2022-12-28T01:07:45.254Z,1015.50
2022-12-28T01:08:45.213Z,1015.61
2022-12-28T01:09:45.203Z,1015.47
2022-12-28T01:10:45.178Z,1015.57
2022-12-28T01:11:45.183Z,1015.56
2022-12-28T01:12:45.167Z,1015.55
2022-12-28T01:13:45.147Z,1015.53
2022-12-28T01:14:45.141Z,1015.53
2022-12-28T01:15:45.137Z,1015.54
2022-12-28T01:16:45.212Z,1015.46
2022-12-28T01:17:45.103Z,1015.52
2022-12-28T01:18:45.097Z,1015.57
2022-12-28T01:19:50.240Z,1015.48
2022-12-28T01:20:45.070Z,1015.43
2022-12-28T01:21:45.058Z,1015.48
2022-12-28T01:22:45.052Z,1015.37
2022-12-28T01:23:45.070Z,1015.39
2022-12-28T01:24:45.033Z,1015.32
2022-12-28T01:25:45.013Z,1015.35
2022-12-28T01:26:45.014Z,1015.34
2022-12-28T01:27:44.998Z,1015.38
2022-12-28T01:28:44.984Z,1015.29
2022-12-28T01:29:44.968Z,1015.31
2022-12-28T01:30:44.955Z,1015.30
2022-12-28T01:31:45.034Z,1015.25
2022-12-28T01:32:44.954Z,1015.27
2022-12-28T01:33:44.927Z,1015.22
2022-12-28T01:34:44.920Z,1015.17
2022-12-28T01:35:44.901Z,1015.17
2022-12-28T01:36:44.897Z,1015.17
2022-12-28T01:37:44.883Z,1015.18
2022-12-28T01:38:44.873Z,1015.10
2022-12-28T01:39:44.888Z,1015.12
2022-12-28T01:40:44.863Z,1015.06
2022-12-28T01:41:44.839Z,1015.11
2022-12-28T01:42:44.822Z,1015.12
2022-12-28T01:43:44.822Z,1015.08
2022-12-28T01:44:44.803Z,1015.01
2022-12-28T01:45:44.820Z,1015.00
2022-12-28T01:46:44.781Z,1015.02
2022-12-28T01:47:44.771Z,1014.93
2022-12-28T01:48:44.759Z,1014.96
2022-12-28T01:49:44.752Z,1014.94
2022-12-28T01:50:44.752Z,1014.95
2022-12-28T01:51:44.731Z,1014.87
2022-12-28T01:52:44.720Z,1014.93
2022-12-28T01:53:44.710Z,1014.90
2022-12-28T01:54:44.694Z,1014.88
2022-12-28T01:55:44.715Z,1014.88
2022-12-28T01:56:44.675Z,1014.81
2022-12-28T01:57:44.665Z,1014.81
2022-12-28T01:58:44.656Z,1014.84
2022-12-28T01:59:44.642Z,1014.79
2022-12-28T02:00:44.642Z,1014.72
2022-12-28T02:01:44.767Z,1014.77
2022-12-28T02:02:44.793Z,1014.68
2022-12-28T02:03:44.656Z,1014.68
2022-12-28T02:04:44.596Z,1014.66
2022-12-28T02:05:44.577Z,1014.66
2022-12-28T02:06:44.569Z,1014.53
2022-12-28T02:07:44.558Z,1014.60
2022-12-28T02:08:44.560Z,1014.56
2022-12-28T02:09:44.550Z,1014.53
2022-12-28T02:10:46.004Z,1014.63
2022-12-28T02:11:44.534Z,1014.57
2022-12-28T02:12:44.551Z,1014.56
2022-12-28T02:13:44.499Z,1014.51
2022-12-28T02:14:44.486Z,1014.48
2022-12-28T02:15:44.473Z,1014.39
2022-12-28T02:16:44.544Z,1014.37
2022-12-28T02:17:44.441Z,1014.40
2022-12-28T02:18:44.435Z,1014.30
2022-12-28T02:19:44.495Z,1014.31
2022-12-28T02:20:44.411Z,1014.33
2022-12-28T02:21:44.400Z,1014.29
2022-12-28T02:22:44.390Z,1014.31
2022-12-28T02:23:44.380Z,1014.27
2022-12-28T02:24:44.366Z,1014.26
2022-12-28T02:25:44.379Z,1014.24
2022-12-28T02:26:44.352Z,1014.25
2022-12-28T02:27:44.364Z,1014.19
2022-12-28T02:28:44.318Z,1014.20
2022-12-28T02:29:44.313Z,1014.07
2022-12-28T02:30:44.426Z,1014.18
2022-12-28T02:31:44.296Z,1014.09
2022-12-28T02:32:44.282Z,1014.08
2022-12-28T02:33:44.302Z,1014.09
2022-12-28T02:34:44.254Z,1014.11
2022-12-28T02:35:44.264Z,1014.09
2022-12-28T02:36:44.232Z,1013.99
2022-12-28T02:37:44.237Z,1013.98
2022-12-28T02:38:44.215Z,1013.95
2022-12-28T02:39:44.215Z,1014.02
2022-12-28T02:40:44.194Z,1013.89
2022-12-28T02:41:44.175Z,1013.90
2022-12-28T02:42:44.169Z,1013.84
2022-12-28T02:43:44.180Z,1013.88
2022-12-28T02:44:44.157Z,1013.83
2022-12-28T02:45:44.189Z,1013.85
2022-12-28T02:46:44.129Z,1013.85
2022-12-28T02:47:44.116Z,1013.74
2022-12-28T02:48:44.117Z,1013.82
2022-12-28T02:49:44.089Z,1013.81
2022-12-28T02:50:44.082Z,1013.73
2022-12-28T02:51:44.076Z,1013.77
2022-12-28T02:52:44.060Z,1013.74
2022-12-28T02:53:44.047Z,1013.65
2022-12-28T02:54:44.033Z,1013.71
2022-12-28T02:55:44.032Z,1013.65
2022-12-28T02:56:44.011Z,1013.69
2022-12-28T02:57:44.008Z,1013.60
2022-12-28T02:58:43.992Z,1013.62
2022-12-28T02:59:44.003Z,1013.58
2022-12-28T03:00:43.964Z,1013.54
2022-12-28T03:01:44.017Z,1013.54
2022-12-28T03:02:44.033Z,1013.46
2022-12-28T03:03:43.941Z,1013.49
2022-12-28T03:04:43.932Z,1013.40
2022-12-28T03:05:43.916Z,1013.31
2022-12-28T03:06:43.912Z,1013.25
2022-12-28T03:07:43.894Z,1013.30
2022-12-28T03:08:43.889Z,1013.23
2022-12-28T03:09:43.873Z,1013.22
2022-12-28T03:10:43.857Z,1013.23
2022-12-28T03:11:43.844Z,1013.17
2022-12-28T03:12:43.831Z,1013.11
2022-12-28T03:13:43.831Z,1013.17
2022-12-28T03:14:43.814Z,1013.07
2022-12-28T03:15:43.824Z,1013.04
2022-12-28T03:16:43.801Z,1013.00
2022-12-28T03:17:43.777Z,1013.00
2022-12-28T03:18:43.771Z,1013.02
2022-12-28T03:19:43.770Z,1013.02
2022-12-28T03:20:43.747Z,1012.91
2022-12-28T03:21:43.740Z,1012.93
2022-12-28T03:22:43.737Z,1012.98
2022-12-28T03:23:43.714Z,1012.81
2022-12-28T03:24:43.704Z,1012.92
2022-12-28T03:25:43.721Z,1012.90
2022-12-28T03:26:43.678Z,1012.87
2022-12-28T03:27:43.668Z,1012.87
2022-12-28T03:28:43.655Z,1012.90
2022-12-28T03:29:43.657Z,1012.85
2022-12-28T03:30:43.679Z,1012.88
2022-12-28T03:31:43.744Z,1012.88
2022-12-28T03:32:43.623Z,1012.82
2022-12-28T03:33:43.600Z,1012.84
2022-12-28T03:34:43.605Z,1012.80
2022-12-28T03:35:43.578Z,1012.80
2022-12-28T03:36:43.569Z,1012.79
2022-12-28T03:37:43.567Z,1012.80
2022-12-28T03:38:43.547Z,1012.82
2022-12-28T03:39:43.542Z,1012.76
2022-12-28T03:40:43.528Z,1012.73
2022-12-28T03:41:43.523Z,1012.74
2022-12-28T03:42:43.512Z,1012.67
2022-12-28T03:43:43.504Z,1012.62
2022-12-28T03:44:43.486Z,1012.74
2022-12-28T03:45:46.523Z,1012.64
2022-12-28T03:46:43.506Z,1012.69
2022-12-28T03:47:43.471Z,1012.59
2022-12-28T03:48:43.461Z,1012.60
2022-12-28T03:49:43.434Z,1012.53
2022-12-28T03:50:43.419Z,1012.45
2022-12-28T03:51:43.408Z,1012.47
2022-12-28T03:52:43.391Z,1012.38
2022-12-28T03:53:43.389Z,1012.45
2022-12-28T03:54:43.371Z,1012.38
2022-12-28T03:55:43.365Z,1012.34
2022-12-28T03:56:43.354Z,1012.36
2022-12-28T03:57:43.343Z,1012.44
2022-12-28T03:58:43.332Z,1012.44
2022-12-28T03:59:43.321Z,1012.43
2022-12-28T04:00:43.315Z,1012.41
2022-12-28T04:01:43.398Z,1012.31
2022-12-28T04:02:43.449Z,1012.28
2022-12-28T04:03:43.306Z,1012.31
2022-12-28T04:04:43.266Z,1012.37
2022-12-28T04:05:43.261Z,1012.29
2022-12-28T04:06:43.237Z,1012.33
2022-12-28T04:07:43.238Z,1012.30
2022-12-28T04:08:43.223Z,1012.35
2022-12-28T04:09:43.222Z,1012.26
2022-12-28T04:10:43.243Z,1012.26
2022-12-28T04:11:43.182Z,1012.17
2022-12-28T04:12:43.177Z,1012.26
2022-12-28T04:13:43.160Z,1012.27
2022-12-28T04:14:43.151Z,1012.22
2022-12-28T04:15:43.200Z,1012.18
2022-12-28T04:16:43.133Z,1012.18
2022-12-28T04:17:43.116Z,1012.20
2022-12-28T04:18:43.115Z,1012.16
2022-12-28T04:19:43.127Z,1012.17
2022-12-28T04:20:43.092Z,1012.13
2022-12-28T04:21:43.071Z,1012.09
2022-12-28T04:22:43.064Z,1012.08
2022-12-28T04:23:43.062Z,1012.03
2022-12-28T04:24:43.061Z,1011.95
2022-12-28T04:25:43.040Z,1011.96
2022-12-28T04:26:43.030Z,1011.92
2022-12-28T04:27:43.019Z,1011.88
2022-12-28T04:28:43.006Z,1011.85
2022-12-28T04:29:42.990Z,1011.84
2022-12-28T04:30:42.977Z,1011.91
2022-12-28T04:31:43.063Z,1011.87
2022-12-28T04:32:42.949Z,1011.84
2022-12-28T04:33:42.939Z,1011.88
2022-12-28T04:34:48.225Z,1011.83
2022-12-28T04:35:42.949Z,1011.84
2022-12-28T04:36:42.916Z,1011.82
2022-12-28T04:37:42.904Z,1011.80
2022-12-28T04:38:42.893Z,1011.83
2022-12-28T04:39:55.956Z,1011.79
2022-12-28T04:40:42.861Z,1011.76
2022-12-28T04:41:42.855Z,1011.85
2022-12-28T04:42:42.838Z,1011.79
2022-12-28T04:43:42.827Z,1011.72
2022-12-28T04:44:42.825Z,1011.72
2022-12-28T04:45:42.813Z,1011.69
2022-12-28T04:46:42.888Z,1011.73
2022-12-28T04:47:42.802Z,1011.73
2022-12-28T04:48:42.785Z,1011.79
2022-12-28T04:49:42.772Z,1011.70
2022-12-28T04:50:42.755Z,1011.76
2022-12-28T04:51:42.775Z,1011.69
2022-12-28T04:52:42.740Z,1011.61
2022-12-28T04:53:42.722Z,1011.70
2022-12-28T04:54:42.702Z,1011.44
2022-12-28T04:55:42.701Z,1011.71
2022-12-28T04:56:42.685Z,1011.69
2022-12-28T04:57:42.671Z,1011.71
2022-12-28T04:58:42.684Z,1011.67
2022-12-28T04:59:42.652Z,1011.69
2022-12-28T05:00:42.739Z,1011.70
2022-12-28T05:01:42.940Z,1011.70
2022-12-28T05:02:46.236Z,1011.70
2022-12-28T05:03:42.623Z,1011.69
2022-12-28T05:04:42.606Z,1011.66
2022-12-28T05:05:42.590Z,1011.65
2022-12-28T05:06:42.577Z,1011.66
2022-12-28T05:07:42.588Z,1011.66
2022-12-28T05:08:42.562Z,1011.60
2022-12-28T05:09:42.557Z,1011.57
2022-12-28T05:10:42.533Z,1011.61
2022-12-28T05:11:42.576Z,1011.67
2022-12-28T05:12:42.505Z,1011.71
2022-12-28T05:13:42.499Z,1011.62
2022-12-28T05:14:42.505Z,1011.57
2022-12-28T05:15:42.480Z,1011.66
2022-12-28T05:16:42.542Z,1011.62
2022-12-28T05:17:42.447Z,1011.61
2022-12-28T05:18:42.440Z,1011.57
2022-12-28T05:19:42.436Z,1011.66
2022-12-28T05:20:42.424Z,1011.64
2022-12-28T05:21:42.416Z,1011.62
2022-12-28T05:22:42.400Z,1011.60
2022-12-28T05:23:42.412Z,1011.56
2022-12-28T05:24:42.377Z,1011.43
2022-12-28T05:25:42.366Z,1011.46
2022-12-28T05:26:42.369Z,1011.57
2022-12-28T05:27:42.345Z,1011.46
2022-12-28T05:28:42.345Z,1011.45
2022-12-28T05:29:42.328Z,1011.42
2022-12-28T05:30:42.313Z,1011.39
2022-12-28T05:31:42.453Z,1011.38
2022-12-28T05:32:42.326Z,1011.35
2022-12-28T05:33:42.281Z,1011.46
2022-12-28T05:34:42.282Z,1011.41
2022-12-28T05:35:42.303Z,1011.38
2022-12-28T05:36:42.239Z,1011.41
2022-12-28T05:37:42.231Z,1011.38
2022-12-28T05:38:42.224Z,1011.44
2022-12-28T05:39:42.232Z,1011.34
2022-12-28T05:40:42.206Z,1011.37
2022-12-28T05:41:42.187Z,1011.27
2022-12-28T05:42:46.618Z,1011.31
2022-12-28T05:43:42.160Z,1011.28
2022-12-28T05:44:42.204Z,1011.28
2022-12-28T05:45:42.151Z,1011.23
2022-12-28T05:46:42.154Z,1011.21
2022-12-28T05:47:42.123Z,1011.20
2022-12-28T05:48:42.103Z,1011.21
2022-12-28T05:49:42.105Z,1011.06
2022-12-28T05:50:42.090Z,1011.08
2022-12-28T05:51:42.085Z,1011.02
2022-12-28T05:52:42.068Z,1011.05
2022-12-28T05:53:42.057Z,1011.01
2022-12-28T05:54:42.050Z,1010.89
2022-12-28T05:55:42.050Z,1011.00
2022-12-28T05:56:42.020Z,1011.02
2022-12-28T05:57:42.018Z,1010.97
2022-12-28T05:58:42.005Z,1010.97
2022-12-28T05:59:41.984Z,1010.90
2022-12-28T06:00:41.980Z,1010.88
2022-12-28T06:01:42.088Z,1010.89
2022-12-28T06:02:42.067Z,1010.95
2022-12-28T06:03:42.018Z,1010.89
2022-12-28T06:04:41.934Z,1010.93
2022-12-28T06:05:41.929Z,1010.95
2022-12-28T06:06:41.919Z,1010.86
2022-12-28T06:07:41.903Z,1010.88
2022-12-28T06:08:41.922Z,1010.83
2022-12-28T06:09:41.892Z,1010.87
2022-12-28T06:10:41.869Z,1010.82
2022-12-28T06:11:41.891Z,1010.78
2022-12-28T06:12:41.846Z,1010.83
2022-12-28T06:13:41.860Z,1010.85
2022-12-28T06:14:41.825Z,1010.85
2022-12-28T06:15:41.805Z,1010.80
2022-12-28T06:16:41.944Z,1010.86
2022-12-28T06:17:41.781Z,1010.77
2022-12-28T06:18:41.785Z,1010.80
2022-12-28T06:19:41.773Z,1010.75
2022-12-28T06:20:41.760Z,1010.73
2022-12-28T06:21:41.748Z,1010.71
2022-12-28T06:22:41.745Z,1010.65
2022-12-28T06:23:41.732Z,1010.65
2022-12-28T06:24:41.703Z,1010.64
2022-12-28T06:25:41.703Z,1010.62
2022-12-28T06:26:41.705Z,1010.63
2022-12-28T06:27:41.702Z,1010.70
2022-12-28T06:28:41.698Z,1010.62
2022-12-28T06:29:41.655Z,1010.61
2022-12-28T06:30:41.649Z,1010.58
2022-12-28T06:31:41.651Z,1010.61
2022-12-28T06:32:41.614Z,1010.54
2022-12-28T06:33:41.614Z,1010.49
2022-12-28T06:34:41.603Z,1010.54
2022-12-28T06:35:41.586Z,1010.47
2022-12-28T06:36:41.591Z,1010.45
2022-12-28T06:37:41.575Z,1010.47
2022-12-28T06:38:41.548Z,1010.46
2022-12-28T06:39:41.554Z,1010.43
2022-12-28T06:41:11.691Z,1010.45
2022-12-28T06:41:41.527Z,1010.43
2022-12-28T06:42:41.509Z,1010.44
2022-12-28T06:43:41.555Z,1010.38
2022-12-28T06:44:44.700Z,1010.38
2022-12-28T06:45:41.506Z,1010.41
2022-12-28T06:46:41.468Z,1010.39
2022-12-28T06:47:41.471Z,1010.41
2022-12-28T06:48:41.444Z,1010.39
2022-12-28T06:49:41.438Z,1010.40
2022-12-28T06:50:41.421Z,1010.32
2022-12-28T06:51:41.444Z,1010.27
2022-12-28T06:52:41.396Z,1010.35
2022-12-28T06:53:41.390Z,1010.39
2022-12-28T06:54:41.378Z,1010.35
2022-12-28T06:55:41.360Z,1010.38
2022-12-28T06:56:41.354Z,1010.33
2022-12-28T06:57:41.347Z,1010.34
2022-12-28T06:58:41.339Z,1010.26
2022-12-28T06:59:41.347Z,1010.35
2022-12-28T07:00:41.309Z,1010.22
2022-12-28T07:01:41.483Z,1010.25
2022-12-28T07:02:41.422Z,1010.24
2022-12-28T07:03:41.271Z,1010.17
2022-12-28T07:04:41.262Z,1010.14
2022-12-28T07:05:41.250Z,1010.19
2022-12-28T07:06:41.257Z,1010.18
2022-12-28T07:07:41.352Z,1010.11
2022-12-28T07:08:41.256Z,1010.05
2022-12-28T07:09:41.234Z,1010.05
2022-12-28T07:10:41.200Z,1010.01
2022-12-28T07:11:41.212Z,1010.08
2022-12-28T07:12:41.187Z,1009.99
2022-12-28T07:13:41.172Z,1010.00
2022-12-28T07:14:41.153Z,1009.99
2022-12-28T07:15:41.175Z,1009.97
2022-12-28T07:16:41.130Z,1009.92
2022-12-28T07:17:41.119Z,1009.94
2022-12-28T07:18:41.111Z,1010.01
2022-12-28T07:19:41.095Z,1009.98
2022-12-28T07:20:41.082Z,1009.97
2022-12-28T07:21:41.081Z,1009.82
2022-12-28T07:22:41.097Z,1009.94
2022-12-28T07:23:41.064Z,1009.77
2022-12-28T07:24:41.043Z,1009.79
2022-12-28T07:25:41.034Z,1009.78
2022-12-28T07:26:41.026Z,1009.78
2022-12-28T07:27:41.021Z,1009.75
2022-12-28T07:28:41.031Z,1009.83
2022-12-28T07:29:40.990Z,1009.79
2022-12-28T07:30:41.069Z,1009.87
2022-12-28T07:31:45.213Z,1009.86
2022-12-28T07:32:40.957Z,1009.78
2022-12-28T07:33:40.943Z,1009.83
2022-12-28T07:34:40.934Z,1009.82
2022-12-28T07:35:40.921Z,1009.76
2022-12-28T07:36:40.916Z,1009.68
2022-12-28T07:37:40.900Z,1009.73
2022-12-28T07:38:40.880Z,1009.74
2022-12-28T07:39:40.926Z,1009.70
2022-12-28T07:40:40.861Z,1009.65
2022-12-28T07:41:40.869Z,1009.67
2022-12-28T07:42:40.850Z,1009.72
2022-12-28T07:43:40.842Z,1009.63
2022-12-28T07:44:44.057Z,1009.62
2022-12-28T07:45:40.847Z,1009.57
2022-12-28T07:46:40.798Z,1009.60
2022-12-28T07:47:40.812Z,1009.53
2022-12-28T07:48:40.767Z,1009.52
2022-12-28T07:49:40.756Z,1009.54
2022-12-28T07:50:40.752Z,1009.50
2022-12-28T07:51:40.735Z,1009.51
2022-12-28T07:52:40.730Z,1009.55
2022-12-28T07:53:40.723Z,1009.54
2022-12-28T07:54:40.702Z,1009.54
2022-12-28T07:55:40.693Z,1009.61
2022-12-28T07:57:04.235Z,1009.47
2022-12-28T07:58:06.228Z,1009.50
2022-12-28T07:59:04.218Z,1009.41
2022-12-28T08:00:04.199Z,1009.39
2022-12-28T08:01:06.472Z,1009.52
2022-12-28T08:02:04.285Z,1009.50
2022-12-28T08:03:04.195Z,1009.49
2022-12-28T08:04:04.324Z,1009.45
2022-12-28T08:05:04.150Z,1009.41
2022-12-28T08:06:04.152Z,1009.40
2022-12-28T08:07:04.130Z,1009.51
2022-12-28T08:08:04.152Z,1009.34
2022-12-28T08:09:04.112Z,1009.44
2022-12-28T08:10:04.088Z,1009.42
2022-12-28T08:11:04.085Z,1009.35
2022-12-28T08:12:04.075Z,1009.40
2022-12-28T08:13:04.069Z,1009.41
2022-12-28T08:14:04.045Z,1009.40
2022-12-28T08:15:04.043Z,1009.39
2022-12-28T08:16:04.135Z,1009.41
2022-12-28T08:17:04.019Z,1009.39
2022-12-28T08:18:04.011Z,1009.41
2022-12-28T08:19:04.018Z,1009.31
2022-12-28T08:20:03.991Z,1009.37
2022-12-28T08:21:03.988Z,1009.38
2022-12-28T08:22:03.968Z,1009.28
2022-12-28T08:23:03.955Z,1009.34
2022-12-28T08:24:03.941Z,1009.30
2022-12-28T08:25:03.928Z,1009.22
2022-12-28T08:26:03.933Z,1009.24
2022-12-28T08:27:03.907Z,1009.28
2022-12-28T08:28:03.905Z,1009.18
2022-12-28T08:29:03.890Z,1009.40
2022-12-28T08:30:03.880Z,1009.16
2022-12-28T08:31:03.922Z,1009.15
2022-12-28T08:32:03.860Z,1009.14
2022-12-28T08:33:03.840Z,1009.14
2022-12-28T08:34:03.833Z,1009.10
2022-12-28T08:35:03.845Z,1009.07
2022-12-28T08:36:03.816Z,1009.09
2022-12-28T08:37:03.824Z,1009.05
2022-12-28T08:38:03.794Z,1009.14
2022-12-28T08:39:03.800Z,1009.17
2022-12-28T08:40:03.779Z,1009.01
2022-12-28T08:41:03.761Z,1009.07
2022-12-28T08:42:03.781Z,1009.08
2022-12-28T08:43:03.751Z,1009.12
2022-12-28T08:44:03.721Z,1008.93
2022-12-28T08:45:03.715Z,1008.95
2022-12-28T08:46:03.858Z,1008.85
2022-12-28T08:47:03.759Z,1009.04
2022-12-28T08:48:03.714Z,1008.91
2022-12-28T08:49:03.666Z,1008.95
2022-12-28T08:50:03.664Z,1008.89
2022-12-28T08:51:03.673Z,1008.90
2022-12-28T08:52:03.639Z,1008.93
2022-12-28T08:53:03.633Z,1008.89
2022-12-28T08:54:03.619Z,1008.88
2022-12-28T08:55:03.610Z,1008.95
2022-12-28T08:56:06.643Z,1008.91
2022-12-28T08:57:03.583Z,1008.97
2022-12-28T08:58:03.574Z,1008.86
2022-12-28T08:59:03.568Z,1008.93
2022-12-28T09:00:03.556Z,1008.93
2022-12-28T09:01:03.598Z,1009.04
2022-12-28T09:02:03.787Z,1008.95
2022-12-28T09:03:03.656Z,1008.91
2022-12-28T09:04:03.503Z,1008.87
2022-12-28T09:05:03.491Z,1008.95
2022-12-28T09:06:03.483Z,1008.85
2022-12-28T09:07:03.497Z,1008.85
2022-12-28T09:08:03.467Z,1008.94
2022-12-28T09:09:06.780Z,1008.92
2022-12-28T09:10:03.510Z,1008.90
2022-12-28T09:11:03.423Z,1008.91
2022-12-28T09:12:03.414Z,1008.92
2022-12-28T09:13:03.409Z,1008.86
2022-12-28T09:14:03.417Z,1008.89
2022-12-28T09:15:03.385Z,1008.90
2022-12-28T09:16:03.433Z,1008.88
2022-12-28T09:17:03.379Z,1008.94
2022-12-28T09:18:03.367Z,1008.89
2022-12-28T09:19:03.355Z,1008.81
2022-12-28T09:20:03.327Z,1008.81
2022-12-28T09:21:03.314Z,1008.76
2022-12-28T09:22:03.344Z,1008.80
2022-12-28T09:23:03.323Z,1008.76
2022-12-28T09:24:03.291Z,1008.72
2022-12-28T09:25:03.278Z,1008.79
2022-12-28T09:26:03.260Z,1008.73
2022-12-28T09:27:03.253Z,1008.76
2022-12-28T09:28:03.239Z,1008.76
2022-12-28T09:29:03.237Z,1008.66
2022-12-28T09:30:03.224Z,1008.76
2022-12-28T09:31:03.288Z,1008.72
2022-12-28T09:32:03.219Z,1008.71
2022-12-28T09:33:03.184Z,1008.51
2022-12-28T09:35:03.192Z,1008.44
2022-12-28T09:36:03.166Z,1008.59
2022-12-28T09:37:03.156Z,1008.41
2022-12-28T09:38:03.128Z,1008.41
2022-12-28T09:39:03.207Z,1008.57
2022-12-28T09:40:03.113Z,1008.46
2022-12-28T09:41:03.104Z,1008.40
2022-12-28T09:42:03.138Z,1008.33
2022-12-28T09:43:03.082Z,1008.40
2022-12-28T09:44:03.067Z,1008.42
2022-12-28T09:45:03.078Z,1008.43
2022-12-28T09:46:03.089Z,1008.42
2022-12-28T09:47:03.110Z,1008.35
2022-12-28T09:48:03.025Z,1008.36
2022-12-28T09:49:03.018Z,1008.37
2022-12-28T09:50:02.995Z,1008.36
2022-12-28T09:51:02.987Z,1008.34
2022-12-28T09:52:02.986Z,1008.33
2022-12-28T09:53:02.961Z,1008.29
2022-12-28T09:54:02.962Z,1008.32
2022-12-28T09:55:02.977Z,1008.21
2022-12-28T09:56:02.935Z,1008.21
2022-12-28T09:57:02.929Z,1008.32
2022-12-28T09:58:02.913Z,1008.40
2022-12-28T09:59:02.899Z,1008.27
2022-12-28T10:00:02.890Z,1008.21
2022-12-28T10:01:02.953Z,1008.18
2022-12-28T10:02:03.049Z,1008.20
2022-12-28T10:03:02.899Z,1008.18
2022-12-28T10:04:02.839Z,1008.18
2022-12-28T10:05:02.837Z,1008.11
2022-12-28T10:06:02.837Z,1008.05
2022-12-28T10:07:02.806Z,1008.16
2022-12-28T10:08:02.809Z,1008.12
2022-12-28T10:09:02.788Z,1008.13
2022-12-28T10:10:02.771Z,1008.08
2022-12-28T10:11:02.798Z,1008.12
2022-12-28T10:12:02.749Z,1008.16
2022-12-28T10:13:04.575Z,1008.11
2022-12-28T10:14:02.722Z,1008.12
2022-12-28T10:15:02.716Z,1008.05
2022-12-28T10:16:02.733Z,1008.16
2022-12-28T10:17:02.697Z,1008.09
2022-12-28T10:18:02.675Z,1008.04
2022-12-28T10:19:02.688Z,1008.03
2022-12-28T10:20:02.674Z,1008.03
2022-12-28T10:21:02.655Z,1007.94
2022-12-28T10:22:02.633Z,1008.04
2022-12-28T10:23:02.617Z,1007.99
2022-12-28T10:24:32.779Z,1007.95
2022-12-28T10:25:02.608Z,1007.99
2022-12-28T10:26:02.591Z,1007.99
2022-12-28T10:27:02.609Z,1007.95
2022-12-28T10:28:02.568Z,1007.98
2022-12-28T10:29:02.568Z,1007.94
2022-12-28T10:30:02.598Z,1007.96
2022-12-28T10:31:02.594Z,1007.98
2022-12-28T10:32:02.514Z,1007.98
2022-12-28T10:33:03.697Z,1008.01
2022-12-28T10:34:02.505Z,1007.96
2022-12-28T10:35:02.483Z,1007.89
2022-12-28T10:36:02.476Z,1007.84
2022-12-28T10:37:02.461Z,1007.90
2022-12-28T10:38:02.459Z,1007.88
2022-12-28T10:39:02.448Z,1007.81
2022-12-28T10:40:02.445Z,1007.84
2022-12-28T10:41:02.418Z,1007.78
2022-12-28T10:42:02.404Z,1007.77
2022-12-28T10:43:10.209Z,1007.75
2022-12-28T10:45:03.392Z,1007.71
2022-12-28T10:46:02.369Z,1007.70
2022-12-28T10:47:02.437Z,1007.69
2022-12-28T10:48:02.336Z,1007.68
2022-12-28T10:49:02.317Z,1007.64
2022-12-28T10:50:35.282Z,1007.64
2022-12-28T10:51:02.308Z,1007.68
2022-12-28T10:52:02.300Z,1007.64
2022-12-28T10:53:02.273Z,1007.66
2022-12-28T10:54:02.265Z,1007.64
2022-12-28T10:55:08.153Z,1007.70
2022-12-28T10:56:02.239Z,1007.62
2022-12-28T10:57:02.243Z,1007.58
2022-12-28T10:58:28.724Z,1007.64
2022-12-28T10:59:02.237Z,1007.62
2022-12-28T11:00:02.190Z,1007.64
2022-12-28T11:01:02.426Z,1007.59
2022-12-28T11:02:02.364Z,1007.60
2022-12-28T11:03:02.180Z,1007.52
2022-12-28T11:03:20.801Z,1007.73
2022-12-28T11:04:02.145Z,1007.54
2022-12-28T11:05:02.135Z,1007.50
2022-12-28T11:06:02.123Z,1007.55
2022-12-28T11:07:02.117Z,1007.61
2022-12-28T11:08:02.118Z,1007.48
2022-12-28T11:09:02.112Z,1007.52
2022-12-28T11:10:02.079Z,1007.53
2022-12-28T11:11:02.077Z,1007.51
2022-12-28T11:12:02.071Z,1007.52
2022-12-28T11:13:02.051Z,1007.56
2022-12-28T11:14:02.040Z,1007.52
2022-12-28T11:15:02.055Z,1007.48
2022-12-28T11:16:02.132Z,1007.47
2022-12-28T11:17:02.012Z,1007.48
2022-12-28T11:18:02.017Z,1007.52
2022-12-28T11:19:01.983Z,1007.42
2022-12-28T11:20:01.978Z,1007.42
2022-12-28T11:21:01.973Z,1007.48
2022-12-28T11:22:01.967Z,1007.37
2022-12-28T11:23:01.960Z,1007.36
2022-12-28T11:24:01.920Z,1007.40
2022-12-28T11:25:01.934Z,1007.36
2022-12-28T11:26:01.905Z,1007.36
2022-12-28T11:27:01.891Z,1007.34
2022-12-28T11:28:01.886Z,1007.37
2022-12-28T11:29:01.905Z,1007.39
2022-12-28T11:30:01.855Z,1007.37
2022-12-28T11:31:01.870Z,1007.30
2022-12-28T11:32:01.920Z,1007.33
2022-12-28T11:33:01.850Z,1007.31
2022-12-28T11:34:01.820Z,1007.30
2022-12-28T11:35:01.830Z,1007.31
2022-12-28T11:36:06.866Z,1007.24
2022-12-28T11:37:01.805Z,1007.18
2022-12-28T11:38:01.775Z,1007.27
2022-12-28T11:39:01.763Z,1007.24
2022-12-28T11:40:01.765Z,1007.17
2022-12-28T11:41:01.755Z,1007.27
2022-12-28T11:43:01.717Z,1007.20
2022-12-28T11:44:01.716Z,1007.17
2022-12-28T11:45:01.687Z,1007.17
2022-12-28T11:46:01.739Z,1007.13
2022-12-28T11:47:01.693Z,1007.11
2022-12-28T11:48:01.654Z,1007.10
2022-12-28T11:49:01.648Z,1007.10
2022-12-28T11:50:01.663Z,1007.12
2022-12-28T11:51:01.627Z,1007.11
2022-12-28T11:52:01.625Z,1007.08
2022-12-28T11:53:01.625Z,1007.08
2022-12-28T11:54:07.596Z,1007.04
2022-12-28T11:55:01.582Z,1007.10
2022-12-28T11:56:01.588Z,1007.03
2022-12-28T11:57:01.565Z,1007.05
2022-12-28T11:58:07.563Z,1007.00
2022-12-28T11:59:01.542Z,1007.06
2022-12-28T12:00:01.563Z,1007.00
2022-12-28T12:01:01.587Z,1006.96
2022-12-28T12:02:01.618Z,1006.97
2022-12-28T12:03:01.630Z,1006.94
2022-12-28T12:04:01.480Z,1007.04
2022-12-28T12:05:01.487Z,1006.92
2022-12-28T12:06:01.476Z,1006.91
2022-12-28T12:07:01.512Z,1006.98
2022-12-28T12:08:01.439Z,1006.92